地図

経路データ

SID SEASON NUMBER BASIN SUBBASIN NAME ISO_TIME NATURE LAT LON WMO_WIND WMO_PRES WMO_AGENCY TRACK_TYPE DIST2LAND LANDFALL IFLAG USA_AGENCY USA_ATCF_ID USA_LAT USA_LON USA_RECORD USA_STATUS USA_WIND USA_PRES USA_SSHS USA_R34_NE USA_R34_SE USA_R34_SW USA_R34_NW USA_R50_NE USA_R50_SE USA_R50_SW USA_R50_NW USA_R64_NE USA_R64_SE USA_R64_SW USA_R64_NW USA_POCI USA_ROCI USA_RMW USA_EYE TOKYO_LAT TOKYO_LON TOKYO_GRADE TOKYO_WIND TOKYO_PRES TOKYO_R50_DIR TOKYO_R50_LONG TOKYO_R50_SHORT TOKYO_R30_DIR TOKYO_R30_LONG TOKYO_R30_SHORT TOKYO_LAND CMA_LAT CMA_LON CMA_CAT CMA_WIND CMA_PRES HKO_LAT HKO_LON HKO_CAT HKO_WIND HKO_PRES NEWDELHI_LAT NEWDELHI_LON NEWDELHI_GRADE NEWDELHI_WIND NEWDELHI_PRES NEWDELHI_CI NEWDELHI_DP NEWDELHI_POCI REUNION_LAT REUNION_LON REUNION_TYPE REUNION_WIND REUNION_PRES REUNION_TNUM REUNION_CI REUNION_RMW REUNION_R34_NE REUNION_R34_SE REUNION_R34_SW REUNION_R34_NW REUNION_R50_NE REUNION_R50_SE REUNION_R50_SW REUNION_R50_NW REUNION_R64_NE REUNION_R64_SE REUNION_R64_SW REUNION_R64_NW BOM_LAT BOM_LON BOM_TYPE BOM_WIND BOM_PRES BOM_TNUM BOM_CI BOM_RMW BOM_R34_NE BOM_R34_SE BOM_R34_SW BOM_R34_NW BOM_R50_NE BOM_R50_SE BOM_R50_SW BOM_R50_NW BOM_R64_NE BOM_R64_SE BOM_R64_SW BOM_R64_NW BOM_ROCI BOM_POCI BOM_EYE BOM_POS_METHOD BOM_PRES_METHOD NADI_LAT NADI_LON NADI_CAT NADI_WIND NADI_PRES WELLINGTON_LAT WELLINGTON_LON WELLINGTON_WIND WELLINGTON_PRES DS824_LAT DS824_LON DS824_STAGE DS824_WIND DS824_PRES TD9636_LAT TD9636_LON TD9636_STAGE TD9636_WIND TD9636_PRES TD9635_LAT TD9635_LON TD9635_WIND TD9635_PRES TD9635_ROCI NEUMANN_LAT NEUMANN_LON NEUMANN_CLASS NEUMANN_WIND NEUMANN_PRES MLC_LAT MLC_LON MLC_CLASS MLC_WIND MLC_PRES USA_GUST BOM_GUST BOM_GUST_PER REUNION_GUST REUNION_GUST_PER USA_SEAHGT USA_SEARAD_NE USA_SEARAD_SE USA_SEARAD_SW USA_SEARAD_NW STORM_SPEED STORM_DIR
1884272N15318 1884 38 NA NA NOT_NAMED 1884-09-27 12:00:00 TS 15.0000 -42.5000 main 1538 1538 _____________O -1 15.0000 -42.5000 TS 35 3 320
1884272N15318 1884 38 NA NA NOT_NAMED 1884-09-27 15:00:00 TS 15.1000 -42.5875 main 1539 1539 _____________P -1 15.1000 -42.5875 TS 37 3 316
1884272N15318 1884 38 NA NA NOT_NAMED 1884-09-27 18:00:00 TS 15.2000 -42.7000 main 1541 1535 _____________O -1 15.2000 -42.7000 TS 40 3 308
1884272N15318 1884 38 NA NA NOT_NAMED 1884-09-27 21:00:00 TS 15.3000 -42.8500 main 1543 1537 _____________P -1 15.3000 -42.8500 TS 42 4 305
1884272N15318 1884 38 NA NA NOT_NAMED 1884-09-28 00:00:00 TS 15.4000 -43.0000 main 1539 1533 _____________O -1 15.4000 -43.0000 TS 45 3 310
1884272N15318 1884 38 NA NA NOT_NAMED 1884-09-28 03:00:00 TS 15.5000 -43.1000 main 1542 1542 _____________P -1 15.5000 -43.1000 TS 47 3 316
1884272N15318 1884 38 NA NA NOT_NAMED 1884-09-28 06:00:00 TS 15.6000 -43.2000 main 1545 1538 _____________O -1 15.6000 -43.2000 TS 50 3 311
1884272N15318 1884 38 NA NA NOT_NAMED 1884-09-28 09:00:00 TS 15.7075 -43.3425 main 1547 1541 _____________P -1 15.7075 -43.3425 TS 50 4 305
1884272N15318 1884 38 NA NA NOT_NAMED 1884-09-28 12:00:00 TS 15.8000 -43.5000 main 1544 1538 _____________O -1 15.8000 -43.5000 TS 50 3 297
1884272N15318 1884 38 NA NA NOT_NAMED 1884-09-28 15:00:00 TS 15.8650 -43.6575 main 1542 1536 _____________P -1 15.8650 -43.6575 TS 50 3 289
1884272N15318 1884 38 NA NA NOT_NAMED 1884-09-28 18:00:00 TS 15.9000 -43.8000 main 1536 1529 _____________O -1 15.9000 -43.8000 TS 50 2 278
1884272N15318 1884 38 NA NA NOT_NAMED 1884-09-28 21:00:00 TS 15.9000 -43.9000 main 1529 1522 _____________P -1 15.9000 -43.9000 TS 50 2 270
1884272N15318 1884 38 NA NA NOT_NAMED 1884-09-29 00:00:00 TS 15.9000 -44.0000 main 1522 1515 _____________O -1 15.9000 -44.0000 TS 50 2 282
1884272N15318 1884 38 NA NA NOT_NAMED 1884-09-29 03:00:00 TS 15.9500 -44.1500 main 1524 1511 _____________P -1 15.9500 -44.1500 TS 50 3 289
1884272N15318 1884 38 NA NA NOT_NAMED 1884-09-29 06:00:00 TS 16.0000 -44.3000 main 1511 1504 _____________O -1 16.0000 -44.3000 TS 50 2 282
1884272N15318 1884 38 NA NA NOT_NAMED 1884-09-29 09:00:00 TS 16.0000 -44.4000 main 1504 1498 _____________P -1 16.0000 -44.4000 TS 50 2 270
1884272N15318 1884 38 NA NA NOT_NAMED 1884-09-29 12:00:00 TS 16.0000 -44.5000 main 1498 1492 _____________O -1 16.0000 -44.5000 TS 50 2 281
1884272N15318 1884 38 NA NA NOT_NAMED 1884-09-29 15:00:00 TS 16.0425 -44.6350 main 1492 1485 _____________P -1 16.0425 -44.6350 TS 50 3 289
1884272N15318 1884 38 NA NA NOT_NAMED 1884-09-29 18:00:00 TS 16.1000 -44.8000 main 1488 1476 _____________O -1 16.1000 -44.8000 TS 50 4 286
1884272N15318 1884 38 NA NA NOT_NAMED 1884-09-29 21:00:00 TS 16.1425 -44.9925 main 1476 1473 _____________P -1 16.1425 -44.9925 TS 50 4 285
1884272N15318 1884 38 NA NA NOT_NAMED 1884-09-30 00:00:00 TS 16.2000 -45.2000 main 1473 1467 _____________O -1 16.2000 -45.2000 TS 50 4 292
1884272N15318 1884 38 NA NA NOT_NAMED 1884-09-30 03:00:00 TS 16.3000 -45.4000 main 1470 1464 _____________P -1 16.3000 -45.4000 TS 50 4 297
1884272N15318 1884 38 NA NA NOT_NAMED 1884-09-30 06:00:00 TS 16.4000 -45.6000 main 1468 1457 _____________O -1 16.4000 -45.6000 TS 50 4 293
1884272N15318 1884 38 NA NA NOT_NAMED 1884-09-30 09:00:00 TS 16.4499 -45.7701 main 1457 1456 _____________P -1 16.4499 -45.7701 TS 50 4 285
1884272N15318 1884 38 NA NA NOT_NAMED 1884-09-30 12:00:00 TS 16.5000 -46.0000 main 1456 1444 _____________O -1 16.5000 -46.0000 TS 50 6 284
1884272N15318 1884 38 NA NA NOT_NAMED 1884-09-30 15:00:00 TS 16.5926 -46.3775 main 1444 1434 _____________P -1 16.5926 -46.3775 TS 50 8 285
1884272N15318 1884 38 NA NA NOT_NAMED 1884-09-30 18:00:00 TS 16.7000 -46.8000 main 1434 1424 _____________O -1 16.7000 -46.8000 TS 50 8 286
1884272N15318 1884 38 NA NA NOT_NAMED 1884-09-30 21:00:00 TS 16.7999 -47.1501 main 1425 1420 _____________P -1 16.7999 -47.1501 TS 50 7 287
1884272N15318 1884 38 NA NA NOT_NAMED 1884-10-01 00:00:00 TS 16.9000 -47.5000 main 1421 1413 _____________O -1 16.9000 -47.5000 TS 50 7 286
1884272N15318 1884 38 NA NA NOT_NAMED 1884-10-01 03:00:00 TS 17.0000 -47.9000 main 1414 1406 _____________P -1 17.0000 -47.9000 TS 50 8 285
1884272N15318 1884 38 NA NA NOT_NAMED 1884-10-01 06:00:00 TS 17.1000 -48.3000 main 1409 1399 _____________O -1 17.1000 -48.3000 TS 50 7 285
1884272N15318 1884 38 NA NA NOT_NAMED 1884-10-01 09:00:00 TS 17.1923 -48.6351 main 1404 1395 _____________P -1 17.1923 -48.6351 TS 50 7 287
1884272N15318 1884 38 NA NA NOT_NAMED 1884-10-01 12:00:00 TS 17.3000 -49.0000 main 1396 1389 _____________O -1 17.3000 -49.0000 TS 50 8 287
1884272N15318 1884 38 NA NA NOT_NAMED 1884-10-01 15:00:00 TS 17.4425 -49.4775 main 1385 1384 _____________P -1 17.4425 -49.4775 TS 47 10 287
1884272N15318 1884 38 NA NA NOT_NAMED 1884-10-01 18:00:00 TS 17.6000 -50.0000 main 1387 1376 _____________O -1 17.6000 -50.0000 TS 45 10 288
1884272N15318 1884 38 NA NA NOT_NAMED 1884-10-01 21:00:00 TS 17.7499 -50.5001 main 1376 1345 _____________P -1 17.7499 -50.5001 TS 42 10 287
1884272N15318 1884 38 NA NA NOT_NAMED 1884-10-02 00:00:00 TS 17.9000 -51.0000 main 1345 1309 _____________O -1 17.9000 -51.0000 TS 40 10 288
1884272N15318 1884 38 NA NA NOT_NAMED 1884-10-02 03:00:00 TS 18.0499 -51.5001 main 1309 1281 _____________P -1 18.0499 -51.5001 TS 37 10 288
1884272N15318 1884 38 NA NA NOT_NAMED 1884-10-02 06:00:00 TS 18.2000 -52.0000 main 1281 1249 _____________O -1 18.2000 -52.0000 TS 35 11 287
1884272N15318 1884 38 NA NA NOT_NAMED 1884-10-02 09:00:00 TS 18.3577 -52.5674 main 1248 1225 _____________P -1 18.3577 -52.5674 TS 35 10 288
1884272N15318 1884 38 NA NA NOT_NAMED 1884-10-02 12:00:00 TS 18.5000 -53.0000 main 1225 1218 _____________O -1 18.5000 -53.0000 TS 35 6 296
1884272N15318 1884 38 NA NA NOT_NAMED 1884-10-02 15:00:00 TS 18.6073 -53.1177 main 1226 1226 _____________P -1 18.6073 -53.1177 TS 35 2 333
1884272N15318 1884 38 NA NA NOT_NAMED 1884-10-02 18:00:00 TS 18.7000 -53.1000 main 1234 1234 _____________O -1 18.7000 -53.1000 TS 35 2 347
1884272N15318 1884 38 NA NA NOT_NAMED 1884-10-02 21:00:00 TS 18.8000 -53.1500 main 1234 1234 _____________P -1 18.8000 -53.1500 TS 35 2 333
1884272N15318 1884 38 NA NA NOT_NAMED 1884-10-03 00:00:00 TS 18.9000 -53.2000 main 1242 1242 _____________O -1 18.9000 -53.2000 TS 35 2 333
1884272N15318 1884 38 NA NA NOT_NAMED 1884-10-03 03:00:00 TS 19.0000 -53.2500 main 1251 1243 _____________P -1 19.0000 -53.2500 TS 35 2 333
1884272N15318 1884 38 NA NA NOT_NAMED 1884-10-03 06:00:00 TS 19.1000 -53.3000 main 1252 1252 _____________O -1 19.1000 -53.3000 TS 35 2 330
1884272N15318 1884 38 NA NA NOT_NAMED 1884-10-03 09:00:00 TS 19.2000 -53.3650 main 1253 1253 _____________P -1 19.2000 -53.3650 TS 35 2 333
1884272N15318 1884 38 NA NA NOT_NAMED 1884-10-03 12:00:00 TS 19.3000 -53.4000 main 1261 1261 _____________O -1 19.3000 -53.4000 TS 35 2 352
1884272N15318 1884 38 NA NA NOT_NAMED 1884-10-03 15:00:00 TS 19.4000 -53.3650 main 1270 1270 _____________P -1 19.4000 -53.3650 TS 35 2 27
1884272N15318 1884 38 NA NA NOT_NAMED 1884-10-03 18:00:00 TS 19.5000 -53.3000 main 1285 1285 _____________O -1 19.5000 -53.3000 TS 35 2 27
1884272N15318 1884 38 NA NA NOT_NAMED 1884-10-03 21:00:00 TS 19.6000 -53.2650 main 1293 1293 _____________P -1 19.6000 -53.2650 TS 35 2 27
1884272N15318 1884 38 NA NA NOT_NAMED 1884-10-04 00:00:00 TS 19.7000 -53.2000 main 1309 1309 _____________O -1 19.7000 -53.2000 TS 35 3 41
1884272N15318 1884 38 NA NA NOT_NAMED 1884-10-04 03:00:00 TS 19.8075 -53.0725 main 1322 1322 _____________P -1 19.8075 -53.0725 TS 35 3 55
1884272N15318 1884 38 NA NA NOT_NAMED 1884-10-04 06:00:00 TS 19.9000 -52.9000 main 1344 1344 _____________O -1 19.9000 -52.9000 TS 35 4 69
1884272N15318 1884 38 NA NA NOT_NAMED 1884-10-04 09:00:00 TS 19.9425 -52.7074 main 1360 1360 _____________P -1 19.9425 -52.7074 TS 35 4 75
1884272N15318 1884 38 NA NA NOT_NAMED 1884-10-04 12:00:00 TS 20.0000 -52.5000 main 1382 1382 _____________O -1 20.0000 -52.5000 TS 35 4 63
1884272N15318 1884 38 NA NA NOT_NAMED 1884-10-04 15:00:00 TS 20.1425 -52.2926 main 1405 1405 _____________P -1 20.1425 -52.2926 TS 35 5 51
1884272N15318 1884 38 NA NA NOT_NAMED 1884-10-04 18:00:00 TS 20.3000 -52.1000 main 1431 1431 _____________O -1 20.3000 -52.1000 TS 35 4 51
1884272N15318 1884 38 NA NA NOT_NAMED 1884-10-04 21:00:00 TS 20.3999 -51.9499 main 1453 1453 _____________P -1 20.3999 -51.9499 TS 35 3 55
1884272N15318 1884 38 NA NA NOT_NAMED 1884-10-05 00:00:00 TS 20.5000 -51.8000 main 1465 1465 _____________O -1 20.5000 -51.8000 TS 35 4 52
1884272N15318 1884 38 NA NA NOT_NAMED 1884-10-05 03:00:00 TS 20.6500 -51.6075 main 1488 1487 _____________P -1 20.6500 -51.6075 TS 35 5 51
1884272N15318 1884 38 NA NA NOT_NAMED 1884-10-05 06:00:00 TS 20.8000 -51.4000 main 1510 1510 _____________O -1 20.8000 -51.4000 TS 35 4 56
1884272N15318 1884 38 NA NA NOT_NAMED 1884-10-05 09:00:00 TS 20.8848 -51.2297 main 1533 1533 _____________P -1 20.8848 -51.2297 TS 35 4 62
1884272N15318 1884 38 NA NA NOT_NAMED 1884-10-05 12:00:00 TS 21.0000 -51.0000 main 1555 1555 _____________O -1 21.0000 -51.0000 TS 35 7 58
1884272N15318 1884 38 NA NA NOT_NAMED 1884-10-05 15:00:00 TS 21.2275 -50.6376 main 1599 1599 _____________P -1 21.2275 -50.6376 TS 35 9 56
1884272N15318 1884 38 NA NA NOT_NAMED 1884-10-05 18:00:00 TS 21.5000 -50.2000 main 1645 1645 _____________O -1 21.5000 -50.2000 TS 35 10 57
1884272N15318 1884 38 NA NA NOT_NAMED 1884-10-05 21:00:00 TS 21.7499 -49.7574 main 1690 1690 _____________P -1 21.7499 -49.7574 TS 35 10 59
1884272N15318 1884 38 NA NA NOT_NAMED 1884-10-06 00:00:00 TS 22.0000 -49.3000 main 1746 1746 _____________O -1 22.0000 -49.3000 TS 35 10 59
1884272N15318 1884 38 NA NA NOT_NAMED 1884-10-06 03:00:00 TS 22.2499 -48.8498 main 1801 1801 _____________P -1 22.2499 -48.8498 TS 35 10 59
1884272N15318 1884 38 NA NA NOT_NAMED 1884-10-06 06:00:00 TS 22.5000 -48.4000 main 1848 1848 _____________O -1 22.5000 -48.4000 TS 35 10 60
1884272N15318 1884 38 NA NA NOT_NAMED 1884-10-06 09:00:00 TS 22.7350 -47.9273 main 1902 1902 _____________P -1 22.7350 -47.9273 TS 35 10 59
1884272N15318 1884 38 NA NA NOT_NAMED 1884-10-06 12:00:00 TS 23.0000 -47.5000 main 1949 1949 _____________O -1 23.0000 -47.5000 TS 35 9 49
1884272N15318 1884 38 NA NA NOT_NAMED 1884-10-06 15:00:00 TS 23.3423 -47.1774 main 1986 1986 _____________P -1 23.3423 -47.1774 TS 35 9 38
1884272N15318 1884 38 NA NA NOT_NAMED 1884-10-06 18:00:00 TS 23.7000 -46.9000 main 2026 2026 _____________O -1 23.7000 -46.9000 TS 35 8 38
1884272N15318 1884 38 NA NA NOT_NAMED 1884-10-06 21:00:00 TS 24.0074 -46.6073 main 2064 2064 _____________P -1 24.0074 -46.6073 TS 35 8 42
1884272N15318 1884 38 NA NA NOT_NAMED 1884-10-07 00:00:00 TS 24.3000 -46.3000 main 2101 2101 _____________O -1 24.3000 -46.3000 TS 35 8 45
1884272N15318 1884 38 NA NA NOT_NAMED 1884-10-07 03:00:00 TS 24.6000 -45.9499 main 2149 2149 _____________P -1 24.6000 -45.9499 TS 35 9 47
1884272N15318 1884 38 NA NA NOT_NAMED 1884-10-07 06:00:00 TS 24.9000 -45.6000 main 2187 2187 _____________O -1 24.9000 -45.6000 TS 35 8 44
1884272N15318 1884 38 NA NA NOT_NAMED 1884-10-07 09:00:00 TS 25.1770 -45.3441 main 2225 2225 _____________P -1 25.1770 -45.3441 TS 35 8 42
1884272N15318 1884 38 NA NA NOT_NAMED 1884-10-07 12:00:00 TS 25.5000 -45.0000 main 2263 2263 _____________O -1 25.5000 -45.0000 TS 35 11 49
1884272N15318 1884 38 NA NA NOT_NAMED 1884-10-07 15:00:00 TS 25.9279 -44.3954 main 2334 2334 _____________P -1 25.9279 -44.3954 TS 35 15 52
1884272N15318 1884 38 NA NA NOT_NAMED 1884-10-07 18:00:00 TS 26.4000 -43.7000 main 2400 2373 _____________O -1 26.4000 -43.7000 TS 35 15 52
1884272N15318 1884 38 NA NA NOT_NAMED 1884-10-07 21:00:00 TS 26.8496 -43.0993 main 2376 2344 _____________P -1 26.8496 -43.0993 TS 35 14 50
1884272N15318 1884 38 NA NA NOT_NAMED 1884-10-08 00:00:00 TS 27.3000 -42.5000 main 2344 2320 _____________O -1 27.3000 -42.5000 TS 35 14 51
1884272N15318 1884 38 NA NA NOT_NAMED 1884-10-08 03:00:00 TS 27.7574 -41.8498 main 2317 2295 _____________P -1 27.7574 -41.8498 TS 35 15 52
1884272N15318 1884 38 NA NA NOT_NAMED 1884-10-08 06:00:00 TS 28.2000 -41.2000 main 2299 2279 _____________O -1 28.2000 -41.2000 TS 35 15 53
1884272N15318 1884 38 NA NA NOT_NAMED 1884-10-08 09:00:00 TS 28.6453 -40.5254 main 2287 2258 _____________P -1 28.6453 -40.5254 TS 35 13 53
1884272N15318 1884 38 NA NA NOT_NAMED 1884-10-08 12:00:00 TS 29.0000 -40.0000 main 2258 2238 _____________O -1 29.0000 -40.0000 TS 35 9 50
1884272N15318 1884 38 NA NA NOT_NAMED 1884-10-08 15:00:00 TS 29.1945 -39.7742 main 2238 2227 _____________P -1 29.1945 -39.7742 TS 35 4 41
1884272N15318 1884 38 NA NA NOT_NAMED 1884-10-08 18:00:00 TS 29.3000 -39.7000 main 2227 2217 _____________O -1 29.3000 -39.7000 TS 35 3 37
1884272N15318 1884 38 NA NA NOT_NAMED 1884-10-08 21:00:00 TS 29.4000 -39.5999 main 2217 2207 _____________P -1 29.4000 -39.5999 TS 35 3 41
1884272N15318 1884 38 NA NA NOT_NAMED 1884-10-09 00:00:00 TS 29.5000 -39.5000 main 2207 2197 _____________O -1 29.5000 -39.5000 TS 35 3 41
1884272N15318 1884 38 NA NA NOT_NAMED 1884-10-09 03:00:00 TS 29.6500 -39.3501 main 2197 2177 _____________P -1 29.6500 -39.3501 TS 35 4 41
1884272N15318 1884 38 NA NA NOT_NAMED 1884-10-09 06:00:00 TS 29.8000 -39.2000 main 2177 2167 _____________O -1 29.8000 -39.2000 TS 35 4 38
1884272N15318 1884 38 NA NA NOT_NAMED 1884-10-09 09:00:00 TS 29.9375 -39.0925 main 2167 2158 _____________P -1 29.9375 -39.0925 TS 35 3 41
1884272N15318 1884 38 NA NA NOT_NAMED 1884-10-09 12:00:00 TS 30.0000 -39.0000 main 2158 2148 _____________O -1 30.0000 -39.0000 TS 35 2 90
1884272N15318 1884 38 NA NA NOT_NAMED 1884-10-09 15:00:00 TS 29.9375 -38.8924 main 2148 2138 _____________P -1 29.9375 -38.8924 TS 35 3 139
1884272N15318 1884 38 NA NA NOT_NAMED 1884-10-09 18:00:00 TS 29.8000 -38.8000 main 2139 2129 _____________O -1 29.8000 -38.8000 TS 35 3 155
1884272N15318 1884 38 NA NA NOT_NAMED 1884-10-09 21:00:00 TS 29.6575 -38.7425 main 2129 2129 _____________P -1 29.6575 -38.7425 TS 35 3 164
1884272N15318 1884 38 NA NA NOT_NAMED 1884-10-10 00:00:00 TS 29.5000 -38.7000 main 2130 2130 _____________O -1 29.5000 -38.7000 TS 35 3 167
1884272N15318 1884 38 NA NA NOT_NAMED 1884-10-10 03:00:00 TS 29.3425 -38.6500 main 2121 2121 _____________P -1 29.3425 -38.6500 TS 35 3 164
1884272N15318 1884 38 NA NA NOT_NAMED 1884-10-10 06:00:00 TS 29.2000 -38.6000 main 2121 2112 _____________O -1 29.2000 -38.6000 TS 35 3 152
1884272N15318 1884 38 NA NA NOT_NAMED 1884-10-10 09:00:00 TS 29.0473 -38.4752 main 2113 2113 _____________P -1 29.0473 -38.4752 TS 35 2 155
1884272N15318 1884 38 NA NA NOT_NAMED 1884-10-10 12:00:00 TS 29.0000 -38.5000 main 2113 2113 _____________O -1 29.0000 -38.5000 TS 35 4 287
1884272N15318 1884 38 NA NA NOT_NAMED 1884-10-10 15:00:00 TS 29.1553 -38.8746 main 2150 2150 _____________P -1 29.1553 -38.8746 TS 35 9 297
1884272N15318 1884 38 NA NA NOT_NAMED 1884-10-10 18:00:00 TS 29.4000 -39.4000 main 2198 2198 _____________O -1 29.4000 -39.4000 TS 35 10 294
1884272N15318 1884 38 NA NA NOT_NAMED 1884-10-10 21:00:00 TS 29.5476 -39.8731 main 2223 2175 _____________P -1 29.5476 -39.8731 TS 35 9 297
1884272N15318 1884 38 NA NA NOT_NAMED 1884-10-11 00:00:00 TS 29.8000 -40.3000 main 2175 2113 _____________O -1 29.8000 -40.3000 TS 35 10 319
1884272N15318 1884 38 NA NA NOT_NAMED 1884-10-11 03:00:00 TS 30.2973 -40.6226 main 2113 2040 _____________P -1 30.2973 -40.6226 TS 35 12 335
1884272N15318 1884 38 NA NA NOT_NAMED 1884-10-11 06:00:00 TS 30.9000 -40.9000 main 2040 1977 _____________O -1 30.9000 -40.9000 TS 35 13 335
1884272N15318 1884 38 NA NA NOT_NAMED 1884-10-11 09:00:00 TS 31.4351 -41.2446 main 1977 1905 _____________P -1 31.4351 -41.2446 TS 35 12 335
1884272N15318 1884 38 NA NA NOT_NAMED 1884-10-11 12:00:00 TS 32.0000 -41.5000 main 1905 1846 _____________O -1 32.0000 -41.5000 TS 35 12 348
1884272N15318 1884 38 NA NA NOT_NAMED 1884-10-11 15:00:00 TS 32.6424 -41.5458 main 1846 1778 _____________P -1 32.6424 -41.5458 TS 35 13 1
1884272N15318 1884 38 NA NA NOT_NAMED 1884-10-11 18:00:00 TS 33.3000 -41.5000 main 1778 1721 _____________O -1 33.3000 -41.5000 TS 35 13 1
1884272N15318 1884 38 NA NA NOT_NAMED 1884-10-11 21:00:00 TS 33.9000 -41.5000 main 1721 1664 _____________P -1 33.9000 -41.5000 TS 35 12 1
1884272N15318 1884 38 NA NA NOT_NAMED 1884-10-12 00:00:00 TS 34.5000 -41.5000 main 1664 1608 _____________O -1 34.5000 -41.5000 TS 35 13 0
1884272N15318 1884 38 NA NA NOT_NAMED 1884-10-12 03:00:00 TS 35.1500 -41.5000 main 1599 1544 _____________P -1 35.1500 -41.5000 TS 35 13 1
1884272N15318 1884 38 NA NA NOT_NAMED 1884-10-12 06:00:00 TS 35.8000 -41.5000 main 1544 1490 _____________O -1 35.8000 -41.5000 TS 35 12 0
1884272N15318 1884 38 NA NA NOT_NAMED 1884-10-12 09:00:00 TS 36.3925 -41.5219 main 1490 1437 _____________P -1 36.3925 -41.5219 TS 35 12 1
1884272N15318 1884 38 NA NA NOT_NAMED 1884-10-12 12:00:00 ET 37.0000 -41.5000 main 1437 1391 _____________O -1 37.0000 -41.5000 EX 35 13 5
1884272N15318 1884 38 NA NA NOT_NAMED 1884-10-12 15:00:00 ET 37.6851 -41.3656 main 1382 1336 _____________P -1 37.6851 -41.3656 EX 35 14 10
1884272N15318 1884 38 NA NA NOT_NAMED 1884-10-12 18:00:00 ET 38.4000 -41.2000 main 1336 1286 _____________O -1 38.4000 -41.2000 EX 35 14 8
1884272N15318 1884 38 NA NA NOT_NAMED 1884-10-12 21:00:00 ET 39.0999 -41.1139 main 1286 1239 _____________P -1 39.0999 -41.1139 EX 35 14 6
1884272N15318 1884 38 NA NA NOT_NAMED 1884-10-13 00:00:00 ET 39.8000 -41.0000 main 1239 1200 _____________O -1 39.8000 -41.0000 EX 35 14 11
1884272N15318 1884 38 NA NA NOT_NAMED 1884-10-13 03:00:00 ET 40.5076 -40.7728 main 1200 1172 _____________P -1 40.5076 -40.7728 EX 37 15 15
1884272N15318 1884 38 NA NA NOT_NAMED 1884-10-13 06:00:00 ET 41.2000 -40.5000 main 1172 1148 _____________O -1 41.2000 -40.5000 EX 40 14 16
1884272N15318 1884 38 NA NA NOT_NAMED 1884-10-13 09:00:00 ET 41.8600 -40.2431 main 1148 1126 _____________P -1 41.8600 -40.2431 EX 42 14 16
1884272N15318 1884 38 NA NA NOT_NAMED 1884-10-13 12:00:00 ET 42.5000 -40.0000 main 1128 _____________O -1 42.5000 -40.0000 EX 45 13 16

IBTrACS Databaseについて

本データベースは、米国NOAAが公開する1842年以降の世界の熱帯低気圧のベストトラックデータアーカイブInternational Best Track Archive for Climate Stewardship (IBTrACS)を、ウェブで閲覧しやすい形式に変換したものです。

最終更新日:2021-11-26